Time;durP1;ratioP1;P1;durP2;ratioP2;P2;SDS_P1;SDS_P2;PMS_P1;PMS_P2;Temp;Humidity;BMP_temperature;BMP_pressure;BME280_temperature;BME280_humidity;BME280_pressure;Samples;Min_cycle;Max_cycle;Signal;HPM_P1;HPM_P2
2021/12/05 00:24:16;;;;;;;2.28;0.80;;;18.40;54.10;;;;;;5015493;28;20057;-94
2021/12/05 00:26:46;;;;;;;2.58;0.90;;;18.40;53.80;;;;;;5015264;28;20048;-93
2021/12/05 01:07:56;;;;;;;2.45;1.02;;;18.30;53.90;;;;;;5008793;28;20079;-94
2021/12/05 01:15:53;;;;;;;2.47;0.90;;;18.30;53.90;;;;;;5051255;28;20052;-94
2021/12/05 01:18:19;;;;;;;2.60;0.82;;;18.30;54.00;;;;;;5052447;28;20044;-94
2021/12/05 01:20:58;;;;;;;1.38;0.60;;;18.30;54.00;;;;;;5051583;28;20037;-95
2021/12/05 01:29:11;;;;;;;2.38;0.77;;;18.30;54.00;;;;;;5051062;28;20072;-95
2021/12/05 01:31:31;;;;;;;1.40;0.65;;;18.40;54.00;;;;;;5045389;28;20045;-95
2021/12/05 01:34:15;;;;;;;2.28;0.90;;;18.20;53.90;;;;;;5049170;28;20708;-96
2021/12/05 01:39:34;;;;;;;1.92;0.73;;;18.20;54.00;;;;;;5050318;28;20665;-94
2021/12/05 01:43:12;;;;;;;2.65;0.70;;;18.20;53.90;;;;;;5050850;28;20048;-95
2021/12/05 02:09:22;;;;;;;2.08;0.80;;;18.10;54.00;;;;;;5051294;28;20557;-94
2021/12/05 02:31:05;;;;;;;1.95;0.77;;;18.10;54.10;;;;;;5054155;28;20076;-95
2021/12/05 02:36:19;;;;;;;2.55;0.70;;;18.10;54.10;;;;;;5053893;28;20144;-94
2021/12/05 02:41:23;;;;;;;3.08;0.80;;;18.10;54.10;;;;;;5053989;28;20131;-94
2021/12/05 02:43:57;;;;;;;2.60;0.75;;;18.10;54.10;;;;;;5037615;28;20040;-93
2021/12/05 02:46:25;;;;;;;2.88;0.90;;;18.10;54.10;;;;;;5053518;28;20079;-94
2021/12/05 02:48:50;;;;;;;1.27;0.60;;;18.10;54.10;;;;;;5054122;28;20067;-94
2021/12/05 02:51:19;;;;;;;2.20;0.60;;;18.10;54.10;;;;;;5053616;28;20040;-94
2021/12/05 02:53:52;;;;;;;3.42;0.80;;;18.10;54.10;;;;;;5053713;28;20106;-94
2021/12/05 02:56:17;;;;;;;2.38;0.80;;;18.10;54.10;;;;;;5053535;28;20037;-94
2021/12/05 02:58:56;;;;;;;2.55;0.80;;;18.10;54.10;;;;;;5053514;28;20057;-93
2021/12/05 03:01:36;;;;;;;1.35;0.70;;;18.10;54.10;;;;;;5037429;28;20055;-94
2021/12/05 03:04:02;;;;;;;2.47;0.73;;;18.10;54.20;;;;;;5051625;28;20044;-94
2021/12/05 03:06:31;;;;;;;2.83;0.57;;;18.10;54.20;;;;;;5053605;28;20053;-95
2021/12/05 03:09:04;;;;;;;2.75;0.85;;;18.00;54.10;;;;;;5053152;28;20053;-95
2021/12/05 03:11:29;;;;;;;1.98;0.60;;;17.90;54.10;;;;;;5053540;28;20056;-93
2021/12/05 03:13:55;;;;;;;3.92;1.50;;;18.00;54.10;;;;;;5053179;28;20051;-94
2021/12/05 03:16:21;;;;;;;1.35;0.80;;;18.00;54.20;;;;;;5053668;28;20068;-94
2021/12/05 03:18:46;;;;;;;1.85;0.60;;;18.00;54.10;;;;;;5053556;28;20139;-94
2021/12/05 03:21:12;;;;;;;1.60;0.50;;;18.00;54.10;;;;;;5053003;28;20053;-94
2021/12/05 03:23:39;;;;;;;3.13;0.88;;;18.00;54.10;;;;;;5053222;28;20044;-94
2021/12/05 03:26:06;;;;;;;1.02;0.50;;;18.00;54.10;;;;;;5053611;28;20053;-94
2021/12/05 03:28:31;;;;;;;2.38;0.55;;;18.00;54.10;;;;;;5053043;28;20599;-94
2021/12/05 03:30:57;;;;;;;1.90;0.70;;;18.00;54.10;;;;;;5053499;28;20052;-94
2021/12/05 03:33:25;;;;;;;1.27;0.60;;;19.30;54.90;;;;;;5053469;28;20127;-94
2021/12/05 03:35:51;;;;;;;3.08;0.80;;;18.00;54.20;;;;;;5052672;28;20076;-94
2021/12/05 03:38:17;;;;;;;1.42;0.70;;;18.00;54.20;;;;;;5053125;28;20131;-94
2021/12/05 03:40:42;;;;;;;1.77;0.40;;;18.00;54.20;;;;;;5052483;28;20131;-93
2021/12/05 03:43:09;;;;;;;1.60;0.68;;;17.90;54.10;;;;;;5051973;28;20060;-94
2021/12/05 03:45:37;;;;;;;2.22;0.80;;;17.90;54.10;;;;;;5052489;28;20076;-94
2021/12/05 03:48:04;;;;;;;1.60;0.68;;;18.00;54.20;;;;;;5052629;28;20128;-93
2021/12/05 03:50:30;;;;;;;1.55;0.50;;;17.90;54.10;;;;;;5052000;28;20049;-93
2021/12/05 03:52:55;;;;;;;1.33;0.50;;;17.90;54.10;;;;;;5052552;28;20396;-94
2021/12/05 03:55:21;;;;;;;1.55;0.63;;;17.90;54.10;;;;;;5052256;28;20052;-93
2021/12/05 03:57:46;;;;;;;2.55;0.80;;;17.90;54.10;;;;;;5051672;28;20496;-93
2021/12/05 04:00:25;;;;;;;1.58;0.60;;;17.90;54.10;;;;;;5051504;28;20088;-93
2021/12/05 04:02:51;;;;;;;2.78;0.77;;;17.90;54.10;;;;;;5052253;28;20049;-93
2021/12/05 04:05:17;;;;;;;1.55;0.60;;;17.90;54.20;;;;;;5051687;28;20052;-93
2021/12/05 04:07:42;;;;;;;1.77;0.63;;;17.90;54.20;;;;;;5052134;28;20044;-93
2021/12/05 04:10:08;;;;;;;1.45;0.60;;;17.90;54.20;;;;;;5050991;28;20127;-93
2021/12/05 04:12:34;;;;;;;2.08;0.77;;;17.90;54.20;;;;;;5059625;28;20108;-92
2021/12/05 04:14:59;;;;;;;1.60;0.70;;;17.90;54.20;;;;;;5078603;28;20045;-96
2021/12/05 04:22:36;;;;;;;1.52;0.70;;;17.80;53.60;;;;;;5578931;22;20276;-96
2021/12/05 04:25:28;;;;;;;1.30;0.55;;;17.80;55.60;;;;;;5087230;28;20044;-96
2021/12/05 04:33:08;;;;;;;1.55;0.57;;;17.90;54.30;;;;;;5067956;28;20068;-96
2021/12/05 04:35:34;;;;;;;2.47;0.65;;;17.90;54.30;;;;;;5053587;28;20044;-96
2021/12/05 04:38:20;;;;;;;1.70;0.65;;;17.90;55.60;;;;;;5042973;28;20066;-94
2021/12/05 04:41:41;;;;;;;1.98;0.77;;;18.00;55.70;;;;;;5056606;28;20090;-96
2021/12/05 06:04:13;;;;;;;2.28;0.60;;;17.80;54.50;;;;;;5277022;23;20277;-95
2021/12/05 06:06:38;;;;;;;2.40;0.80;;;17.70;54.50;;;;;;5018428;28;20049;-94
2021/12/05 06:09:04;;;;;;;2.53;0.60;;;17.70;54.50;;;;;;5018902;28;20386;-94
2021/12/05 06:11:29;;;;;;;2.35;0.50;;;17.70;54.50;;;;;;5018550;28;20050;-94
2021/12/05 06:13:55;;;;;;;2.65;0.50;;;17.70;54.50;;;;;;5001525;28;20188;-94
2021/12/05 06:16:21;;;;;;;1.67;0.50;;;17.70;54.50;;;;;;5018413;28;20049;-95
2021/12/05 06:18:46;;;;;;;1.60;0.55;;;17.70;54.50;;;;;;5018093;28;20481;-95
2021/12/05 06:21:12;;;;;;;2.15;0.60;;;17.70;54.50;;;;;;5018543;28;20555;-94
2021/12/05 06:23:38;;;;;;;1.27;0.50;;;17.70;54.50;;;;;;5018418;28;20049;-94
2021/12/05 06:26:05;;;;;;;1.67;0.77;;;17.70;54.50;;;;;;5017753;28;20057;-93
2021/12/05 06:28:38;;;;;;;1.65;0.50;;;17.70;54.50;;;;;;5018523;28;20393;-94
2021/12/05 06:39:22;;;;;;;1.10;0.50;;;17.70;54.50;;;;;;4993945;28;20050;-95
2021/12/05 06:41:56;;;;;;;1.50;0.50;;;17.70;54.50;;;;;;4995000;28;20552;-94
2021/12/05 06:47:07;;;;;;;1.58;0.40;;;17.70;54.50;;;;;;4993685;28;20042;-94
2021/12/05 06:49:33;;;;;;;2.05;0.60;;;17.70;54.60;;;;;;4989899;28;20053;-93
2021/12/05 06:51:58;;;;;;;1.92;0.60;;;17.70;54.60;;;;;;4974847;28;20050;-95
2021/12/05 06:54:24;;;;;;;1.13;0.40;;;17.70;54.50;;;;;;4975503;28;20097;-95
2021/12/05 06:56:50;;;;;;;1.17;0.47;;;17.70;54.50;;;;;;4966377;28;20080;-96
2021/12/05 06:59:15;;;;;;;1.42;0.45;;;17.70;54.60;;;;;;4959203;28;20061;-95
2021/12/05 07:01:41;;;;;;;2.13;0.80;;;17.70;54.50;;;;;;4959656;28;20050;-96
2021/12/05 07:04:18;;;;;;;1.02;0.60;;;17.70;54.60;;;;;;4955842;29;20498;-96
2021/12/05 07:06:43;;;;;;;1.60;0.50;;;17.60;54.50;;;;;;4974777;28;20065;-95
2021/12/05 07:09:10;;;;;;;1.52;0.50;;;17.60;54.50;;;;;;4975417;28;20051;-95
2021/12/05 07:12:19;;;;;;;3.10;0.50;;;17.60;54.50;;;;;;4975496;28;20133;-95
2021/12/05 07:14:50;;;;;;;2.55;0.70;;;17.70;54.60;;;;;;4974810;28;20142;-95
2021/12/05 07:20:08;;;;;;;2.05;0.50;;;17.70;54.60;;;;;;4974918;28;20050;-96
2021/12/05 07:23:12;;;;;;;1.98;0.57;;;17.60;54.60;;;;;;4993182;28;20088;-95
2021/12/05 07:26:05;;;;;;;2.15;0.80;;;17.70;54.60;;;;;;4994153;28;20068;-95
2021/12/05 07:42:04;;;;;;;1.73;0.50;;;17.60;54.60;;;;;;4974291;28;20042;-95
2021/12/05 07:44:30;;;;;;;1.67;0.60;;;17.60;54.60;;;;;;4973355;28;20054;-94
2021/12/05 07:46:56;;;;;;;1.80;0.55;;;17.60;54.60;;;;;;4973053;28;20043;-95
2021/12/05 07:52:02;;;;;;;1.05;0.30;;;17.60;54.60;;;;;;5056579;23;20117;-89
2021/12/05 07:54:43;;;;;;;1.23;0.60;;;17.70;55.10;;;;;;4956942;28;20129;-90
2021/12/05 07:57:26;;;;;;;1.30;0.45;;;17.60;54.70;;;;;;4954509;28;20047;-89
2021/12/05 08:00:11;;;;;;;1.73;0.50;;;17.60;54.70;;;;;;4952029;28;20047;-88
2021/12/05 08:16:24;;;;;;;3.42;0.60;;;18.80;55.50;;;;;;4971597;28;20051;-91
2021/12/05 08:18:50;;;;;;;1.50;0.40;;;18.10;55.00;;;;;;4980553;28;20057;-92
2021/12/05 08:21:15;;;;;;;2.08;0.60;;;17.50;54.70;;;;;;4991916;28;20038;-91
2021/12/05 08:23:41;;;;;;;1.33;0.50;;;17.50;54.70;;;;;;4992210;28;20046;-92
2021/12/05 08:26:10;;;;;;;1.50;0.40;;;17.50;54.80;;;;;;4992220;28;20505;-91
2021/12/05 09:08:26;;;;;;;1.55;0.47;;;17.50;54.80;;;;;;4991043;28;20058;-90
2021/12/05 09:22:31;;;;;;;1.63;0.60;;;17.50;54.80;;;;;;4956516;28;20494;-94
2021/12/05 09:30:11;;;;;;;1.35;0.40;;;18.10;55.20;;;;;;4976257;28;20042;-93
2021/12/05 09:52:49;;;;;;;2.42;0.47;;;17.40;55.00;;;;;;4994160;28;20058;-92
2021/12/05 10:03:06;;;;;;;1.00;0.40;;;17.50;55.00;;;;;;4961728;28;20046;-92
2021/12/05 10:13:23;;;;;;;2.08;0.50;;;17.40;55.00;;;;;;4975751;28;20043;-92
2021/12/05 10:26:44;;;;;;;1.70;0.45;;;17.40;55.00;;;;;;4992255;28;20054;-93
2021/12/05 10:37:53;;;;;;;0.95;0.40;;;17.40;55.10;;;;;;4983627;28;20061;-91
2021/12/05 10:40:23;;;;;;;1.17;0.50;;;17.60;55.20;;;;;;4997424;28;20096;-92
2021/12/05 10:42:53;;;;;;;0.85;0.43;;;17.40;55.10;;;;;;4997982;28;20477;-90
2021/12/05 10:45:48;;;;;;;0.93;0.30;;;17.40;55.10;;;;;;4979283;28;20073;-91
2021/12/05 10:48:24;;;;;;;1.13;0.52;;;17.40;55.10;;;;;;4890043;28;20056;-85
2021/12/05 10:51:00;;;;;;;1.33;0.40;;;17.40;55.10;;;;;;4900740;29;20111;-94
2021/12/05 10:53:36;;;;;;;1.17;0.32;;;17.40;55.10;;;;;;4907123;29;20052;-93
2021/12/05 10:56:24;;;;;;;1.02;0.45;;;17.40;55.10;;;;;;4915407;29;20060;-92
2021/12/05 10:58:57;;;;;;;1.95;0.50;;;17.40;55.10;;;;;;4907301;29;20091;-82
2021/12/05 11:02:11;;;;;;;2.20;0.75;;;17.40;55.40;;;;;;4904966;29;20500;-85
2021/12/05 11:04:44;;;;;;;1.98;0.60;;;17.40;55.90;;;;;;4876769;29;20056;-86
2021/12/05 11:07:16;;;;;;;2.80;0.65;;;17.50;55.70;;;;;;4907795;29;20077;-82
2021/12/05 11:09:43;;;;;;;1.77;0.47;;;17.50;55.60;;;;;;4900195;29;20178;-81
2021/12/05 11:12:25;;;;;;;2.10;0.60;;;17.50;55.50;;;;;;4904750;29;20141;-86
2021/12/05 11:14:52;;;;;;;2.28;0.40;;;17.60;55.60;;;;;;4910932;29;20556;-86
2021/12/05 11:17:22;;;;;;;0.98;0.30;;;17.60;55.50;;;;;;4894313;29;20048;-87
2021/12/05 11:20:21;;;;;;;1.48;0.50;;;17.70;55.40;;;;;;4894625;29;20057;-87
2021/12/05 11:22:50;;;;;;;1.75;0.40;;;17.70;55.40;;;;;;4895309;29;20052;-87
2021/12/05 11:25:20;;;;;;;1.42;0.40;;;17.70;55.30;;;;;;4895063;29;20056;-87
2021/12/05 11:27:47;;;;;;;1.85;0.47;;;17.80;55.30;;;;;;4897350;29;20063;-87
2021/12/05 11:30:17;;;;;;;1.48;0.50;;;17.80;55.30;;;;;;4913920;29;20127;-87
2021/12/05 11:33:08;;;;;;;1.80;0.40;;;17.80;55.20;;;;;;4914025;29;20085;-87
2021/12/05 11:35:42;;;;;;;2.75;0.60;;;17.80;55.20;;;;;;4913415;29;20052;-87
2021/12/05 11:38:14;;;;;;;1.67;0.40;;;17.80;55.10;;;;;;4913947;29;20051;-87
2021/12/05 11:40:45;;;;;;;1.02;0.40;;;17.80;55.10;;;;;;4912964;29;20518;-87
2021/12/05 11:43:39;;;;;;;1.42;0.35;;;17.90;55.10;;;;;;4897065;29;20044;-85
2021/12/05 11:46:12;;;;;;;1.45;0.40;;;17.90;55.00;;;;;;4977479;23;20511;-85
2021/12/05 11:48:53;;;;;;;1.52;0.45;;;17.90;55.00;;;;;;4951747;29;20051;-86
2021/12/05 11:51:33;;;;;;;0.82;0.40;;;17.90;55.00;;;;;;4951701;29;20047;-86
2021/12/05 11:54:08;;;;;;;1.80;0.40;;;17.90;55.00;;;;;;4951863;29;20114;-87
2021/12/05 11:56:34;;;;;;;2.92;0.50;;;18.00;55.00;;;;;;4946540;28;20062;-87
2021/12/05 11:59:15;;;;;;;2.13;0.40;;;17.90;54.90;;;;;;4959965;28;20506;-87
2021/12/05 12:01:50;;;;;;;0.80;0.30;;;18.00;55.00;;;;;;4970298;28;20763;-86
2021/12/05 12:04:18;;;;;;;2.08;0.40;;;18.00;54.90;;;;;;4970516;28;20053;-86
2021/12/05 12:06:44;;;;;;;1.55;0.40;;;18.00;54.90;;;;;;4970760;28;20117;-87
2021/12/05 12:09:10;;;;;;;3.42;0.40;;;18.00;54.90;;;;;;4962001;28;20066;-87
2021/12/05 12:11:35;;;;;;;1.08;0.40;;;18.00;54.90;;;;;;4970783;28;20093;-81
2021/12/05 12:14:01;;;;;;;1.13;0.38;;;18.00;54.80;;;;;;4970801;28;20050;-89
2021/12/05 12:16:33;;;;;;;0.70;0.30;;;18.00;54.90;;;;;;4969824;28;20499;-87
2021/12/05 12:18:59;;;;;;;1.55;0.40;;;18.00;54.80;;;;;;4970598;28;20674;-87
2021/12/05 12:21:27;;;;;;;0.98;0.30;;;18.00;54.70;;;;;;4970428;28;20463;-87
2021/12/05 12:23:54;;;;;;;0.65;0.30;;;18.10;54.80;;;;;;4968000;28;20512;-86
2021/12/05 12:26:20;;;;;;;1.27;0.40;;;18.10;54.80;;;;;;4970476;28;20109;-87
2021/12/05 12:28:46;;;;;;;1.15;0.30;;;18.10;54.70;;;;;;4962573;28;20693;-87
2021/12/05 12:31:31;;;;;;;0.95;0.38;;;19.30;55.40;;;;;;4956891;28;20611;-87
2021/12/05 12:33:59;;;;;;;0.90;0.40;;;18.10;54.70;;;;;;4955663;28;20042;-87
2021/12/05 12:36:33;;;;;;;1.05;0.40;;;18.10;54.70;;;;;;4970253;28;20046;-87
2021/12/05 12:39:03;;;;;;;1.00;0.35;;;18.10;54.70;;;;;;4962719;28;20102;-87
2021/12/05 12:41:29;;;;;;;1.52;0.38;;;18.10;54.70;;;;;;4970242;28;20105;-86
2021/12/05 12:44:01;;;;;;;2.22;0.28;;;18.10;54.70;;;;;;4969455;28;20051;-92
2021/12/05 12:46:45;;;;;;;1.10;0.35;;;18.10;54.70;;;;;;4968357;28;20197;-86
2021/12/05 12:49:14;;;;;;;0.77;0.30;;;18.30;54.80;;;;;;4969846;28;20058;-86
2021/12/05 12:51:42;;;;;;;0.88;0.40;;;18.10;54.70;;;;;;4967510;28;20050;-85
2021/12/05 12:54:17;;;;;;;1.23;0.35;;;18.10;54.70;;;;;;4968900;28;20086;-85
2021/12/05 12:56:59;;;;;;;1.02;0.30;;;19.10;55.30;;;;;;4969251;28;20067;-85
2021/12/05 12:59:28;;;;;;;0.40;0.28;;;18.20;54.80;;;;;;4969039;28;20051;-86
2021/12/05 13:05:17;;;;;;;1.10;0.30;;;18.20;54.80;;;;;;4969837;28;20050;-85
2021/12/05 13:11:06;;;;;;;0.77;0.20;;;17.40;54.30;;;;;;4969590;28;20054;-85
2021/12/05 13:13:33;;;;;;;0.80;0.30;;;18.20;54.70;;;;;;4969281;28;20127;-85
2021/12/05 13:16:08;;;;;;;1.08;0.20;;;18.20;54.70;;;;;;4969577;28;20050;-85
2021/12/05 13:18:35;;;;;;;1.02;0.30;;;18.20;54.70;;;;;;4969449;28;20558;-85
2021/12/05 13:21:11;;;;;;;0.55;0.30;;;18.20;54.70;;;;;;4968824;28;20060;-85
2021/12/05 13:23:38;;;;;;;0.93;0.20;;;18.20;54.70;;;;;;4969552;28;20043;-85
2021/12/05 13:26:10;;;;;;;1.33;0.30;;;18.20;54.70;;;;;;4968541;28;20047;-85
2021/12/05 13:28:40;;;;;;;1.23;0.30;;;18.20;54.60;;;;;;4969470;28;20047;-85
2021/12/05 13:31:28;;;;;;;0.95;0.32;;;18.30;54.70;;;;;;4969691;28;20050;-86
2021/12/05 13:34:24;;;;;;;1.33;0.40;;;18.30;54.60;;;;;;4967074;28;20125;-86
2021/12/05 13:36:58;;;;;;;0.55;0.17;;;18.00;54.50;;;;;;4967470;28;20082;-86
2021/12/05 13:39:47;;;;;;;1.02;0.30;;;18.30;54.70;;;;;;4968278;28;20796;-86
2021/12/05 13:42:24;;;;;;;0.70;0.30;;;18.70;54.80;;;;;;4965994;28;20142;-86
2021/12/05 13:45:10;;;;;;;0.93;0.25;;;18.30;54.60;;;;;;4968303;28;20121;-84
2021/12/05 13:47:44;;;;;;;0.73;0.30;;;19.40;55.20;;;;;;4961254;28;20415;-83
2021/12/05 13:50:16;;;;;;;0.95;0.40;;;18.30;54.60;;;;;;4962639;28;20054;-84
2021/12/05 13:52:42;;;;;;;1.25;0.30;;;18.40;54.60;;;;;;4968672;28;20134;-84
2021/12/05 13:56:04;;;;;;;0.43;0.30;;;18.30;54.60;;;;;;4967735;28;20045;-84
2021/12/05 13:58:38;;;;;;;0.63;0.25;;;18.40;54.60;;;;;;4968649;28;20046;-85
2021/12/05 14:01:31;;;;;;;0.50;0.20;;;19.00;54.90;;;;;;4968440;28;20062;-84
2021/12/05 14:04:00;;;;;;;1.15;0.30;;;18.40;54.60;;;;;;4969175;28;20054;-84
2021/12/05 14:07:04;;;;;;;0.43;0.10;;;18.40;54.60;;;;;;4969407;28;20193;-84
2021/12/05 14:09:49;;;;;;;0.75;0.10;;;18.50;54.60;;;;;;4897643;29;20048;-84
2021/12/05 14:12:18;;;;;;;1.05;0.20;;;18.40;54.60;;;;;;4968425;28;20141;-84
2021/12/05 14:14:51;;;;;;;0.60;0.10;;;18.40;54.60;;;;;;4970810;28;20102;-85
2021/12/05 14:17:22;;;;;;;0.57;0.20;;;18.40;54.50;;;;;;4969960;28;20051;-85
2021/12/05 14:19:51;;;;;;;0.60;0.28;;;18.40;54.60;;;;;;4971779;28;20101;-85
2021/12/05 14:22:19;;;;;;;1.95;0.63;;;18.40;54.50;;;;;;4971305;28;20073;-86
2021/12/05 14:24:48;;;;;;;0.65;0.32;;;18.40;54.50;;;;;;4968286;28;20066;-85
2021/12/05 14:27:16;;;;;;;0.63;0.20;;;19.60;55.20;;;;;;4968019;28;20145;-85
2021/12/05 14:29:43;;;;;;;0.60;0.28;;;18.40;54.50;;;;;;4970354;28;20101;-85
2021/12/05 14:32:11;;;;;;;1.45;0.30;;;18.40;54.60;;;;;;4955172;28;20068;-85
2021/12/05 14:34:37;;;;;;;0.73;0.20;;;18.40;54.50;;;;;;4972655;28;20046;-85
2021/12/05 14:37:08;;;;;;;0.75;0.30;;;18.40;54.50;;;;;;4966035;28;20561;-85
2021/12/05 14:39:38;;;;;;;1.27;0.30;;;18.40;54.40;;;;;;4962293;28;20129;-85
2021/12/05 14:42:09;;;;;;;0.60;0.20;;;18.40;54.50;;;;;;4968794;28;20051;-85
2021/12/05 14:44:36;;;;;;;0.55;0.20;;;18.40;54.50;;;;;;4952329;29;20047;-85
2021/12/05 14:47:09;;;;;;;0.47;0.20;;;18.40;54.40;;;;;;4952910;29;20074;-85
2021/12/05 14:49:40;;;;;;;0.50;0.20;;;18.40;54.40;;;;;;4968142;28;20051;-85
2021/12/05 14:52:09;;;;;;;0.30;0.20;;;18.40;54.40;;;;;;4969761;28;20054;-85
2021/12/05 14:54:38;;;;;;;0.95;0.20;;;18.40;54.40;;;;;;4988354;28;20105;-85
2021/12/05 14:57:07;;;;;;;0.98;0.28;;;18.50;54.50;;;;;;4972033;28;20474;-85
2021/12/05 14:59:33;;;;;;;0.63;0.20;;;18.40;54.40;;;;;;4971249;28;20049;-85
2021/12/05 15:01:58;;;;;;;0.43;0.10;;;18.40;54.40;;;;;;4971641;28;20054;-85
2021/12/05 15:04:29;;;;;;;0.32;0.20;;;18.40;54.40;;;;;;4924155;28;20061;-85
2021/12/05 15:06:56;;;;;;;0.75;0.20;;;18.40;54.40;;;;;;4986380;28;20046;-85
2021/12/05 15:09:29;;;;;;;0.55;0.10;;;20.00;55.30;;;;;;4989603;28;20054;-85
2021/12/05 15:12:05;;;;;;;0.35;0.20;;;18.50;54.40;;;;;;4979952;28;20046;-85
2021/12/05 15:14:30;;;;;;;0.80;0.28;;;18.40;54.40;;;;;;4981442;28;20069;-85
2021/12/05 15:17:08;;;;;;;0.47;0.20;;;18.50;54.40;;;;;;4979951;28;20038;-85
2021/12/05 15:19:34;;;;;;;0.70;0.20;;;18.50;54.40;;;;;;4977222;28;20512;-85
2021/12/05 15:22:01;;;;;;;0.88;0.20;;;18.40;54.40;;;;;;4982105;28;20042;-85
2021/12/05 15:24:27;;;;;;;0.73;0.30;;;18.50;54.50;;;;;;4989306;28;20125;-85
2021/12/05 15:26:54;;;;;;;0.60;0.20;;;18.50;54.40;;;;;;4986548;28;20121;-85
2021/12/05 15:29:20;;;;;;;0.70;0.22;;;18.50;54.60;;;;;;4989266;28;20042;-80
2021/12/05 15:31:45;;;;;;;0.85;0.20;;;18.50;54.40;;;;;;4990361;28;20785;-87
2021/12/05 15:34:25;;;;;;;0.80;0.32;;;18.50;54.40;;;;;;4991066;28;20058;-83
2021/12/05 15:37:07;;;;;;;0.47;0.20;;;18.40;54.40;;;;;;4971268;28;20046;-86
2021/12/05 15:39:36;;;;;;;0.60;0.30;;;18.50;54.50;;;;;;5001567;28;20042;-86
2021/12/05 15:42:04;;;;;;;0.75;0.20;;;18.10;54.20;;;;;;4990112;28;20050;-86
2021/12/05 15:44:34;;;;;;;0.77;0.30;;;18.50;54.50;;;;;;4979801;28;20644;-86
2021/12/05 15:50:12;;;;;;;0.65;0.20;;;18.50;54.40;;;;;;4987899;28;20053;-86
2021/12/05 15:55:46;;;;;;;0.85;0.30;;;17.40;54.00;;;;;;4971782;28;20062;-87
2021/12/05 15:58:23;;;;;;;1.23;0.20;;;19.40;54.90;;;;;;4989349;28;20054;-87
2021/12/05 16:00:57;;;;;;;1.25;0.30;;;18.10;54.20;;;;;;4973738;28;20086;-87
2021/12/05 16:03:25;;;;;;;0.70;0.38;;;19.80;55.10;;;;;;4974611;28;20050;-87
2021/12/05 16:05:58;;;;;;;0.80;0.30;;;18.40;54.40;;;;;;4990290;28;20058;-88
2021/12/05 16:08:38;;;;;;;0.50;0.22;;;18.60;54.40;;;;;;4989860;28;20521;-88
2021/12/05 16:11:22;;;;;;;0.43;0.25;;;18.50;54.40;;;;;;4989392;28;20089;-89
2021/12/05 16:13:49;;;;;;;0.70;0.20;;;17.60;54.00;;;;;;4990710;28;20112;-89
2021/12/05 16:16:22;;;;;;;1.17;0.20;;;19.00;54.60;;;;;;5006858;28;20042;-89
2021/12/05 16:19:13;;;;;;;0.47;0.20;;;18.50;54.40;;;;;;4989010;28;20109;-89
2021/12/05 16:21:38;;;;;;;0.70;0.22;;;18.50;54.40;;;;;;4990021;28;20133;-90
2021/12/05 16:24:06;;;;;;;0.75;0.20;;;20.20;55.40;;;;;;4990276;28;20137;-86
2021/12/05 16:26:32;;;;;;;1.15;0.30;;;18.50;54.50;;;;;;4973442;28;20050;-87
2021/12/05 16:29:08;;;;;;;1.02;0.30;;;18.00;54.10;;;;;;4988488;28;20062;-88
2021/12/05 16:31:53;;;;;;;0.68;0.30;;;19.30;54.70;;;;;;4989493;28;20047;-87
2021/12/05 16:34:31;;;;;;;0.80;0.30;;;18.40;54.20;;;;;;4990153;28;20410;-87
2021/12/05 16:37:13;;;;;;;0.88;0.30;;;18.30;54.40;;;;;;4988560;28;20058;-87
2021/12/05 16:39:41;;;;;;;0.98;0.30;;;18.50;54.40;;;;;;4986201;28;20165;-87
2021/12/05 16:42:09;;;;;;;1.85;0.30;;;18.50;54.30;;;;;;4989391;28;20047;-81
2021/12/05 16:44:37;;;;;;;0.95;0.40;;;19.70;54.90;;;;;;4986312;28;20058;-89
2021/12/05 16:47:17;;;;;;;3.72;0.55;;;18.50;54.20;;;;;;4989390;28;20062;-89
2021/12/05 16:49:45;;;;;;;3.05;0.43;;;18.50;54.20;;;;;;4974206;28;20563;-88
2021/12/05 16:52:15;;;;;;;0.85;0.20;;;18.40;54.10;;;;;;4987704;28;20125;-87
2021/12/05 16:55:02;;;;;;;1.98;0.47;;;18.40;54.10;;;;;;4975841;28;20133;-86
2021/12/05 16:57:34;;;;;;;2.13;0.30;;;18.50;54.10;;;;;;4981752;28;20306;-88
2021/12/05 17:00:03;;;;;;;2.03;0.40;;;18.40;54.10;;;;;;4986753;28;20457;-89
2021/12/05 17:02:33;;;;;;;3.45;0.50;;;18.40;54.10;;;;;;4991706;28;20054;-90
2021/12/05 17:05:03;;;;;;;0.70;0.30;;;18.40;54.10;;;;;;4991024;28;20169;-90
2021/12/05 17:07:37;;;;;;;2.50;0.60;;;18.40;54.10;;;;;;4991086;28;20053;-91
2021/12/05 17:10:08;;;;;;;0.90;0.43;;;18.30;54.10;;;;;;4991391;28;20058;-90
2021/12/05 17:12:34;;;;;;;1.10;0.40;;;18.40;54.10;;;;;;4989087;28;20056;-91
2021/12/05 17:15:18;;;;;;;0.60;0.40;;;18.30;54.10;;;;;;4990807;28;20042;-90
2021/12/05 17:17:45;;;;;;;0.90;0.50;;;18.30;54.10;;;;;;4988908;28;20498;-90
2021/12/05 17:20:25;;;;;;;0.98;0.40;;;18.30;54.10;;;;;;4963314;28;20054;-88
2021/12/05 17:23:05;;;;;;;0.63;0.40;;;18.30;54.10;;;;;;4970109;28;20046;-88
2021/12/05 17:25:40;;;;;;;0.77;0.50;;;19.60;54.90;;;;;;4968856;28;20168;-90
2021/12/05 17:28:10;;;;;;;0.93;0.55;;;18.30;54.20;;;;;;4969965;28;20047;-89
2021/12/05 17:30:36;;;;;;;1.30;0.50;;;18.30;54.20;;;;;;4970758;28;20058;-89
2021/12/05 17:33:02;;;;;;;1.77;0.50;;;18.30;54.20;;;;;;4969392;28;20429;-88
2021/12/05 17:35:28;;;;;;;1.15;0.50;;;18.60;54.40;;;;;;4969264;28;20043;-87
2021/12/05 17:37:54;;;;;;;1.02;0.40;;;18.20;54.20;;;;;;4962160;28;20066;-88
2021/12/05 17:40:19;;;;;;;0.82;0.50;;;18.20;54.20;;;;;;4985488;28;20049;-88
2021/12/05 17:42:45;;;;;;;1.10;0.50;;;19.70;55.00;;;;;;4990709;28;20069;-88
2021/12/05 17:45:11;;;;;;;1.17;0.47;;;18.20;54.20;;;;;;4991516;28;20047;-87
2021/12/05 17:47:37;;;;;;;9.65;0.70;;;18.20;54.20;;;;;;4973439;28;20055;-87
2021/12/05 17:50:09;;;;;;;1.08;0.47;;;18.20;54.20;;;;;;4992962;28;20145;-88
2021/12/05 17:52:34;;;;;;;0.77;0.40;;;18.20;54.30;;;;;;4992315;28;20054;-89
2021/12/05 17:55:06;;;;;;;1.23;0.50;;;18.20;54.30;;;;;;4990765;28;20042;-88
2021/12/05 17:57:43;;;;;;;1.63;0.40;;;18.20;54.30;;;;;;4989316;28;20050;-87
2021/12/05 18:00:35;;;;;;;0.90;0.40;;;18.10;54.30;;;;;;4983831;28;20486;-87
2021/12/05 18:03:00;;;;;;;2.03;0.50;;;18.10;54.30;;;;;;4976072;28;20063;-90
2021/12/05 18:05:38;;;;;;;0.95;0.40;;;18.20;54.40;;;;;;4992456;28;20049;-87
2021/12/05 18:08:07;;;;;;;0.90;0.35;;;19.50;55.10;;;;;;4991386;28;20078;-87
2021/12/05 18:10:35;;;;;;;0.73;0.43;;;18.10;54.30;;;;;;4992753;28;20556;-86
2021/12/05 18:13:03;;;;;;;0.70;0.40;;;18.10;54.40;;;;;;4992403;28;20050;-87
2021/12/05 18:15:32;;;;;;;0.95;0.40;;;18.10;54.40;;;;;;4991797;28;20046;-87
2021/12/05 18:17:58;;;;;;;1.15;0.52;;;18.10;54.40;;;;;;4980389;28;20126;-86
2021/12/05 18:20:26;;;;;;;1.10;0.40;;;18.10;54.40;;;;;;4972836;28;20070;-87
2021/12/05 18:22:56;;;;;;;1.63;0.60;;;18.10;54.40;;;;;;4971981;28;20134;-87
2021/12/05 18:25:21;;;;;;;1.02;0.50;;;18.10;54.40;;;;;;4971381;28;20047;-87
2021/12/05 18:27:47;;;;;;;2.70;0.70;;;18.10;54.40;;;;;;4972022;28;20051;-87
2021/12/05 18:30:15;;;;;;;0.98;0.50;;;18.10;55.10;;;;;;4971067;28;20413;-87
2021/12/05 18:32:41;;;;;;;1.80;0.50;;;18.10;54.40;;;;;;4972470;28;20450;-88
2021/12/05 18:35:07;;;;;;;1.10;0.40;;;18.10;54.50;;;;;;4972623;28;20055;-87
2021/12/05 18:37:32;;;;;;;1.77;0.52;;;18.10;54.50;;;;;;4971675;28;20053;-87
2021/12/05 18:39:58;;;;;;;1.83;0.50;;;18.00;54.40;;;;;;4971291;28;20520;-86
2021/12/05 18:42:26;;;;;;;2.13;0.50;;;18.00;54.40;;;;;;4971210;28;20525;-86
2021/12/05 18:44:56;;;;;;;1.25;0.50;;;18.00;54.40;;;;;;4972076;28;20137;-86
2021/12/05 18:47:23;;;;;;;1.65;0.50;;;18.00;54.40;;;;;;4972179;28;20113;-86
2021/12/05 18:49:49;;;;;;;2.22;0.68;;;18.00;54.40;;;;;;4955463;28;20462;-86
2021/12/05 18:52:14;;;;;;;1.33;0.57;;;18.00;54.50;;;;;;4971227;28;20042;-86
2021/12/05 18:54:42;;;;;;;1.73;0.70;;;19.20;55.10;;;;;;4972305;28;20427;-86
2021/12/05 18:57:16;;;;;;;1.08;0.68;;;18.00;54.50;;;;;;4971161;28;20082;-86
2021/12/05 18:59:56;;;;;;;1.38;0.60;;;18.00;54.50;;;;;;4972272;28;20047;-86
2021/12/05 19:05:09;;;;;;;0.98;0.50;;;18.00;54.50;;;;;;4968714;28;20043;-88
2021/12/05 19:13:03;;;;;;;1.25;0.65;;;18.00;54.50;;;;;;4972239;28;20499;-88
2021/12/05 19:15:28;;;;;;;1.38;0.70;;;18.00;54.60;;;;;;4972158;28;20038;-89
2021/12/05 19:17:55;;;;;;;1.58;0.60;;;18.00;54.60;;;;;;4955677;28;20047;-89
2021/12/05 19:20:22;;;;;;;2.65;0.70;;;17.90;54.50;;;;;;4957252;28;20050;-89
2021/12/05 19:22:48;;;;;;;1.48;0.50;;;17.90;54.60;;;;;;4972681;28;20077;-87
2021/12/05 19:25:19;;;;;;;1.50;0.70;;;17.90;54.60;;;;;;4971173;28;20049;-89
2021/12/05 19:27:46;;;;;;;1.60;0.68;;;17.90;54.60;;;;;;4973085;28;20590;-88
2021/12/05 19:30:15;;;;;;;1.77;0.85;;;17.90;54.60;;;;;;4972870;28;20078;-88
2021/12/05 19:32:41;;;;;;;1.13;0.60;;;17.90;54.60;;;;;;4942493;28;20051;-90
2021/12/05 19:35:07;;;;;;;1.52;0.57;;;17.90;54.60;;;;;;4952157;28;20051;-89
2021/12/05 19:37:32;;;;;;;1.20;0.57;;;17.90;54.60;;;;;;4952636;28;20060;-89
2021/12/05 19:39:58;;;;;;;1.73;0.75;;;17.90;54.60;;;;;;4966308;28;20047;-88
2021/12/05 19:42:25;;;;;;;2.05;0.80;;;17.90;54.60;;;;;;4952280;28;20073;-88